Terminal Aerodrome Forecast
Issued by NWS

Home | Current Version | Previous Version | Text Only | Print | Product List | Glossary On
Versions: 1 2 3 4 5 6 7 8 9 10 11 12 13 14 15 16 17 18 19 20 21 22 23 24 25 26 27
000
FTUS44 KHGX 202334
TAFSGR
TAF
KSGR 202334Z 2100/2124 18015G25KT P6SM BKN035 OVC040
     FM210100 15013KT P6SM BKN015 OVC025
     FM210600 15009KT 5SM BR OVC009
     FM210900 17007KT 3SM BR BKN005
     FM211100 14008KT 5SM -SHRA BR VCTS OVC009CB
     FM211300 VRB10G20KT 2SM TSRA BR BKN008CB OVC015
     FM212000 22010G18KT 4SM SHRA OVC008=

USA.gov is the U.S. government's official web portal to all federal, state and local government web resources and services.